• Join FlightAware (Why Join?)
  • Login
  • US Flag 
06:54PM EST


 

Airport Tracker/Info


-or-


 

Live Flight TrackerFlight Track Log ✈ N749SS ✈ 28-Oct-2013 ✈ KAPF - KMKC

Flight Track Log - Related Links

Times and Time Zones

All times are in EDT time to prevent confusion due to time zone crossing. See the N749SS flight status page for this flight to view local times or setup timezone preferences in your user account.

Time Position Orientation Groundspeed Altitude Reporting Facility
EDT Latitude Longitude Course Direction KTS MPH feet Rate Location/Type
03:28PM 26.2197 -81.7544 266° West 156 180 4,700  Level Miami Center
03:29PM 26.2147 -81.8375 266° West 105 121 8,300 3,720 Climbing Miami Center
03:30PM 26.2097 -81.9228 266° West 198 228 12,200 3,600 Climbing Miami Center
03:31PM 26.2003 -82.0150 264° West 281 323 15,600 2,820 Climbing Miami Center
03:32PM 26.2167 -82.0850 285° West 298 343 17,900 2,400 Climbing Miami Center
03:33PM 26.2400 -82.1903 284° West 303 349 20,500 2,340 Climbing Miami Center
03:34PM 26.3125 -82.2608 319° Northwest 314 361 22,600 1,920 Climbing Miami Center
03:35PM 26.4047 -82.3044 337° Northwest 337 388 24,400 1,620 Climbing Miami Center
03:36PM 26.5053 -82.3553 336° Northwest 356 410 25,900 1,500 Climbing Miami Center
03:37PM 26.6033 -82.4064 335° Northwest 380 437 27,400 1,500 Climbing Miami Center
03:38PM 26.7078 -82.4625 334° Northwest 399 459 29,000 1,560 Climbing Miami Center
03:39PM 26.8142 -82.5164 336° Northwest 407 468 30,600 1,680 Climbing Miami Center
03:40PM 26.9186 -82.5703 335° Northwest 412 474 32,400 1,860 Climbing Miami Center
03:41PM 27.0228 -82.6244 335° Northwest 412 474 34,400 1,980 Climbing Miami Center
03:42PM 27.1208 -82.6783 334° Northwest 407 468 36,400 1,920 Climbing Miami Center
03:43PM 27.2189 -82.7275 336° Northwest 397 457 38,300 1,740 Climbing Miami Center
03:44PM 27.3231 -82.7842 334° Northwest 378 435 39,900 840 Climbing Miami Center
03:45PM 27.4131 -82.8308 335° Northwest 388 447 40,000  Climbing Miami Center
03:46PM 27.5089 -82.8828 334° Northwest 388 447 40,000  Level Miami Center
03:47PM 27.6089 -82.9347 335° Northwest 393 452 40,000  Level Miami Center
03:49PM 27.8514 -83.0639 335° Northwest 387 445 40,000  Level Jacksonville Center
03:50PM 27.9514 -83.1181 334° Northwest 387 445 40,000  Level Jacksonville Center
03:51PM 28.0517 -83.1583 340° North 387 445 40,000  Level Jacksonville Center
03:52PM 28.1622 -83.1797 350° North 387 445 40,000  Level Jacksonville Center
03:53PM 28.2747 -83.2014 350° North 395 455 40,000  Level Jacksonville Center
03:54PM 28.3853 -83.2206 351° North 395 455 40,000  Level Jacksonville Center
03:55PM 28.4917 -83.2422 350° North 395 455 40,000  Level Jacksonville Center
03:56PM 28.6003 -83.2639 350° North 390 449 40,000  Level Jacksonville Center
03:57PM 28.7108 -83.2856 350° North 390 449 40,000  Level Jacksonville Center
03:58PM 28.8192 -83.3072 350° North 390 449 40,000  Level Jacksonville Center
03:59PM 28.9275 -83.3339 348° North 390 449 40,000  Level Jacksonville Center
04:00PM 29.0275 -83.3889 334° Northwest 390 449 40,000  Level Jacksonville Center
04:01PM 29.1172 -83.4511 329° Northwest 385 443 40,000  Level Jacksonville Center
04:02PM 29.2044 -83.5158 327° Northwest 380 437 40,000  Level Jacksonville Center
04:03PM 29.2958 -83.5808 328° Northwest 380 437 40,000  Level Jacksonville Center
04:04PM 29.3853 -83.6458 328° Northwest 380 437 40,000  Level Jacksonville Center
04:05PM 29.4747 -83.7108 328° Northwest 385 443 40,000  Level Jacksonville Center
04:06PM 29.5661 -83.7761 328° Northwest 385 443 40,000  Level Jacksonville Center
04:07PM 29.6556 -83.8414 328° Northwest 385 443 40,000  Level Jacksonville Center
04:08PM 29.7467 -83.9069 328° Northwest 385 443 40,000  Level Jacksonville Center
04:09PM 29.8361 -83.9725 328° Northwest 385 443 40,000  Level Jacksonville Center
04:10PM 29.9253 -84.0358 328° Northwest 380 437 40,000  Level Jacksonville Center
04:11PM 30.0144 -84.1039 327° Northwest 380 437 40,000  Level Jacksonville Center
04:12PM 30.1036 -84.1675 328° Northwest 380 437 40,000  Level Jacksonville Center
04:13PM 30.2031 -84.2386 328° Northwest 375 432 40,000  Level Jacksonville Center
04:14PM 30.2922 -84.3022 328° Northwest 375 432 40,000  Level Jacksonville Center
04:15PM 30.3792 -84.3686 327° Northwest 375 432 40,000  Level Jacksonville Center
04:16PM 30.4681 -84.4325 328° Northwest 375 432 40,000  Level Jacksonville Center
04:17PM 30.5569 -84.4967 328° Northwest 375 432 40,000  Level Jacksonville Center
04:18PM 30.6481 -84.5636 328° Northwest 380 437 40,000  Level Jacksonville Center
04:19PM 30.7369 -84.6328 326° Northwest 380 437 40,000  Level Jacksonville Center
04:20PM 30.8217 -84.6972 327° Northwest 385 443 40,000  Level Jacksonville Center
04:21PM 30.9083 -84.7617 327° Northwest 380 437 40,000  Level Jacksonville Center
04:23PM 31.0633 -84.8775 327° Northwest 380 437 40,000  Level Atlanta Center
04:24PM 31.1486 -84.9439 326° Northwest 380 437 40,000  Level Atlanta Center
04:25PM 31.2378 -85.0103 328° Northwest 380 437 40,000  Level Atlanta Center
04:26PM 31.3269 -85.0792 327° Northwest 380 437 40,000  Level Atlanta Center
04:27PM 31.4161 -85.1436 328° Northwest 380 437 40,000  Level Atlanta Center
04:28PM 31.5011 -85.2056 328° Northwest 372 428 40,000  Level Atlanta Center
04:29PM 31.5903 -85.2750 326° Northwest 372 428 40,000  Level Atlanta Center
04:30PM 31.6750 -85.3369 328° Northwest 367 422 40,000  Level Atlanta Center
04:31PM 31.7494 -85.4186 317° Northwest 367 422 40,000  Level Atlanta Center
04:32PM 31.8172 -85.5103 311° West 367 422 40,000  Level Atlanta Center
04:33PM 31.8828 -85.5994 311° West 367 422 40,000  Level Atlanta Center
04:34PM 31.9528 -85.6886 313° West 367 422 40,000  Level Atlanta Center
04:35PM 32.0306 -85.7956 311° West 375 432 40,000  Level Atlanta Center
04:36PM 32.0958 -85.8875 310° West 375 432 40,000  Level Atlanta Center
04:37PM 32.1633 -85.9772 312° West 375 432 40,000  Level Atlanta Center
04:38PM 32.2331 -86.0669 313° West 375 432 40,000  Level Atlanta Center
04:39PM 32.3003 -86.1569 311° West 370 426 40,000  Level Atlanta Center
04:40PM 32.3636 -86.2469 310° West 370 426 40,000  Level Atlanta Center
04:41PM 32.4186 -86.3197 312° West 370 426 40,000  Level Atlanta Center
04:42PM 32.4961 -86.4128 315° West 370 426 40,000  Level Atlanta Center
04:43PM 32.5733 -86.5161 312° West 370 426 40,000  Level Atlanta Center
04:44PM 32.6425 -86.6042 313° West 370 426 40,000  Level Atlanta Center
04:45PM 32.7097 -86.6903 313° West 370 426 40,000  Level Atlanta Center
04:46PM 32.7764 -86.7811 311° West 370 426 40,000  Level Atlanta Center
04:47PM 32.8433 -86.8722 311° West 370 426 40,000  Level Atlanta Center
04:48PM 32.9103 -86.9586 313° West 370 426 40,000  Level Atlanta Center
04:49PM 32.9789 -87.0475 313° West 370 426 40,000  Level Atlanta Center
04:50PM 33.0356 -87.1236 312° West 370 426 40,000  Level Atlanta Center
04:51PM 33.1064 -87.2131 313° West 362 417 40,000  Level Atlanta Center
04:52PM 33.1728 -87.3022 312° West 362 417 40,000  Level Atlanta Center
04:53PM 33.2372 -87.3917 311° West 362 417 40,000  Level Atlanta Center
04:55PM 33.3475 -87.5372 312° West 380 437 40,000  Level Memphis Center
04:56PM 33.4142 -87.6272 312° West 375 432 40,000  Level Memphis Center
04:57PM 33.4831 -87.7172 313° West 370 426 40,000  Level Memphis Center
04:58PM 33.5475 -87.8100 310° West 370 426 40,000  Level Memphis Center
04:59PM 33.6139 -87.8978 312° West 365 420 40,000  Level Memphis Center
05:00PM 33.6886 -87.9806 317° Northwest 360 414 40,000  Level Memphis Center
05:01PM 33.7592 -88.0686 314° West 360 414 40,000  Level Memphis Center
05:02PM 33.8400 -88.1564 318° Northwest 360 414 40,000  Level Memphis Center
05:03PM 33.9022 -88.2425 311° West 365 420 40,000  Level Memphis Center
05:04PM 33.9725 -88.3258 315° West 365 420 40,000  Level Memphis Center
05:05PM 34.0447 -88.4119 315° West 365 420 40,000  Level Memphis Center
05:06PM 34.1169 -88.5006 315° West 370 426 40,000  Level Memphis Center
05:07PM 34.1892 -88.5869 315° West 370 426 40,000  Level Memphis Center
05:08PM 34.2572 -88.6683 315° West 370 426 40,000  Level Memphis Center
05:09PM 34.3292 -88.7575 314° West 370 426 40,000  Level Memphis Center
05:10PM 34.3969 -88.8367 316° Northwest 357 411 40,000  Level Memphis Center
05:11PM 34.4692 -88.9236 315° West 357 411 40,000  Level Memphis Center
05:12PM 34.5453 -89.0183 314° West 357 411 40,000  Level Memphis Center
05:13PM 34.6150 -89.1056 314° West 357 411 40,000  Level Memphis Center
05:14PM 34.6867 -89.1928 315° West 357 411 40,000  Level Memphis Center
05:15PM 34.7564 -89.2803 314° West 363 418 40,000  Level Memphis Center
05:16PM 34.8281 -89.3678 315° West 363 418 40,000  Level Memphis Center
05:17PM 34.8997 -89.4531 316° Northwest 363 418 40,000  Level Memphis Center
05:18PM 34.9711 -89.5411 315° West 369 425 40,000  Level Memphis Center
05:19PM 35.0447 -89.6317 315° West 369 425 40,000  Level Memphis Center
05:20PM 35.1142 -89.7225 313° West 369 425 40,000  Level Memphis Center
05:21PM 35.1833 -89.8108 314° West 369 425 40,000  Level Memphis Center
05:22PM 35.2506 -89.8994 313° West 369 425 40,000  Level Memphis Center
05:23PM 35.3197 -89.9856 315° West 369 425 40,000  Level Memphis Center
05:24PM 35.3889 -90.0744 314° West 363 418 40,000  Level Memphis Center
05:25PM 35.4556 -90.1608 313° West 357 411 40,000  Level Memphis Center
05:26PM 35.5225 -90.2500 313° West 357 411 40,000  Level Memphis Center
05:27PM 35.5853 -90.3264 315° West 352 405 40,000  Level Memphis Center
05:28PM 35.6539 -90.4183 313° West 352 405 40,000  Level Memphis Center
05:29PM 35.7144 -90.5053 311° West 352 405 40,000  Level Memphis Center
05:30PM 35.7811 -90.5925 313° West 346 398 40,000  Level Memphis Center
05:31PM 35.8517 -90.6822 314° West 346 398 40,000  Level Memphis Center
05:32PM 35.9203 -90.7697 314° West 352 405 40,000  Level Memphis Center
05:33PM 35.9867 -90.8572 313° West 352 405 40,000  Level Memphis Center
05:34PM 36.0572 -90.9475 314° West 352 405 40,000  Level Memphis Center
05:35PM 36.1256 -91.0406 312° West 352 405 40,000  Level Memphis Center
05:36PM 36.1939 -91.1311 313° West 358 412 40,000  Level Memphis Center
05:37PM 36.2642 -91.2219 314° West 358 412 40,000  Level Memphis Center
05:38PM 36.3300 -91.3128 312° West 358 412 40,000  Level Memphis Center
05:39PM 36.4025 -91.4011 316° Northwest 363 418 40,000  Level Memphis Center
05:40PM 36.4703 -91.4950 312° West 369 425 40,000  Level Memphis Center
05:41PM 36.5444 -91.5889 315° West 358 412 40,000  Level Memphis Center
05:42PM 36.6144 -91.6806 314° West 358 412 40,000  Level Memphis Center
05:42PM 36.6406 -91.7164 312° West 358 412 40,000  Level Kansas City Center
05:43PM 36.7089 -91.8083 313° West 359 413 40,000  Level Kansas City Center
05:44PM 36.7772 -91.8997 313° West 359 413 40,000  Level Kansas City Center
05:45PM 36.8597 -92.0092 313° West 358 412 40,000  Level Kansas City Center
05:46PM 36.9272 -92.1017 312° West 359 413 40,000  Level Kansas City Center
05:47PM 36.9953 -92.1942 313° West 359 413 40,000  Level Kansas City Center
05:48PM 37.0633 -92.2861 313° West 360 414 40,000  Level Kansas City Center
05:49PM 37.1322 -92.3797 313° West 361 415 40,000  Level Kansas City Center
05:50PM 37.1997 -92.4725 312° West 360 414 40,000 -480 Level Kansas City Center
05:52PM 37.2678 -92.5675 312° West 362 417 39,100 -1,080 Descending Kansas City Center
05:53PM 37.3506 -92.6825 312° West 366 421 37,800 -1,020 Descending Kansas City Center
05:54PM 37.4203 -92.7797 312° West 368 423 37,000 -420 Descending Kansas City Center
05:55PM 37.4922 -92.8775 313° West 374 430 37,000  Level Kansas City Center
05:56PM 37.5636 -92.9769 312° West 377 434 37,000 -420 Level Kansas City Center
05:57PM 37.6356 -93.0772 312° West 381 438 36,200 -1,200 Descending Kansas City Center
05:58PM 37.7056 -93.1750 312° West 377 434 34,600 -1,500 Descending Kansas City Center
05:59PM 37.7758 -93.2750 312° West 377 434 33,100 -1,500 Descending Kansas City Center
06:00PM 37.8514 -93.3808 312° West 395 455 31,600 -1,860 Descending Kansas City Center
06:01PM 37.9419 -93.5108 311° West 407 468 29,300 -2,340 Descending Kansas City Center
06:02PM 38.0192 -93.6192 312° West 410 472 26,800 -2,400 Descending Kansas City Center
06:03PM 38.0961 -93.7319 311° West 418 481 24,400 -2,340 Descending Kansas City Center
06:04PM 38.1961 -93.8067 330° Northwest 427 491 22,000 -2,400 Descending Kansas City Center
06:05PM 38.3078 -93.8664 337° Northwest 433 498 19,500 -2,400 Descending Kansas City Center
06:06PM 38.4136 -93.9278 336° Northwest 423 487 17,100 -2,520 Descending Kansas City Center
06:07PM 38.5364 -93.9978 336° Northwest 417 480 14,400 -2,400 Descending Kansas City Center
06:08PM 38.6336 -94.0547 335° Northwest 403 464 12,200 -1,260 Descending Kansas City Center
06:09PM 38.7367 -94.1353 329° Northwest 392 451 11,900 -780 Descending Kansas City Center
06:10PM 38.8144 -94.2236 319° Northwest 390 449 10,700 -1,200 Descending Kansas City Center
06:11PM 38.9039 -94.2881 331° Northwest 320 368 9,500 -1,500 Descending Kansas City Center
06:12PM 38.9750 -94.3308 335° Northwest 297 342 7,600 -1,680 Descending Kansas City Center
06:13PM 39.0428 -94.3703 336° Northwest 283 326 6,100 -1,080 Descending Kansas City Center
06:14PM 39.1206 -94.4106 338° Northwest 271 312 5,400 -1,020 Descending Kansas City Center
06:15PM 39.1906 -94.4339 346° North 272 313 4,100 -1,080 Descending Kansas City Center
06:16PM 39.2331 -94.4919 313° West 211 243 3,200 -780 Descending Kansas City Center
06:17PM 39.2253 -94.5519 261° West 182 209 2,600 -600 Descending Kansas City Center
06:18PM 39.1833 -94.5753 203° Southwest 151 174 2,000 -720 Descending Kansas City Center
06:19PM 39.1400 -94.5864 191° South 148 170 1,200 -780 Descending Kansas City Center
06:21PM 39.1167 -94.5833 165° South  Level FlightAware Approximate